Time;durP1;ratioP1;P1;durP2;ratioP2;P2;SDS_P1;SDS_P2;PMS_P1;PMS_P2;Temp;Humidity;BMP_temperature;BMP_pressure;BME280_temperature;BME280_humidity;BME280_pressure;Samples;Min_cycle;Max_cycle;Signal;HPM_P1;HPM_P2
2022/04/29 00:01:24;;;;;;;1.73;1.20;;;20.90;40.10;;;;;;5076986;28;20020;-54
2022/04/29 00:03:53;;;;;;;2.08;1.20;;;20.90;40.00;;;;;;5078102;28;20083;-58
2022/04/29 00:06:19;;;;;;;1.83;1.20;;;20.90;40.00;;;;;;5094385;28;20055;-58
2022/04/29 00:08:44;;;;;;;1.92;1.15;;;20.90;40.10;;;;;;5076814;28;20009;-58
2022/04/29 00:11:10;;;;;;;1.85;1.20;;;20.90;40.10;;;;;;5078545;28;20044;-58
2022/04/29 00:13:36;;;;;;;2.53;1.38;;;20.90;40.10;;;;;;5077859;28;20044;-58
2022/04/29 00:16:01;;;;;;;1.58;1.20;;;20.90;40.10;;;;;;5079149;28;20028;-58
2022/04/29 00:18:27;;;;;;;1.15;0.98;;;20.90;40.20;;;;;;5077138;28;20008;-58
2022/04/29 00:20:53;;;;;;;1.65;1.20;;;20.90;40.10;;;;;;5078124;28;20383;-58
2022/04/29 00:23:19;;;;;;;1.25;1.15;;;20.80;40.20;;;;;;5078974;28;20045;-58
2022/04/29 00:25:45;;;;;;;2.30;1.33;;;20.80;40.20;;;;;;5077424;28;20020;-53
2022/04/29 00:28:10;;;;;;;4.10;1.42;;;20.90;40.20;;;;;;5077782;28;20020;-54
2022/04/29 00:30:36;;;;;;;1.85;1.25;;;20.90;40.20;;;;;;5092957;28;20005;-54
2022/04/29 00:33:02;;;;;;;1.67;1.25;;;20.80;40.20;;;;;;5077720;28;20032;-52
2022/04/29 00:35:28;;;;;;;1.85;1.20;;;20.80;40.20;;;;;;5077771;28;20021;-55
2022/04/29 00:37:58;;;;;;;3.40;1.48;;;20.80;40.20;;;;;;5076434;28;20094;-55
2022/04/29 00:40:26;;;;;;;1.92;1.10;;;20.80;40.20;;;;;;5076909;28;20127;-53
2022/04/29 00:42:52;;;;;;;1.98;1.17;;;20.80;40.30;;;;;;5077038;28;20020;-54
2022/04/29 00:45:20;;;;;;;2.92;1.50;;;20.80;40.30;;;;;;5075778;28;20033;-56
2022/04/29 00:47:46;;;;;;;2.38;1.15;;;20.80;40.30;;;;;;5076947;28;20070;-58
2022/04/29 00:50:13;;;;;;;3.28;1.38;;;20.80;40.40;;;;;;5077212;28;20123;-56
2022/04/29 00:52:44;;;;;;;1.92;1.20;;;20.80;40.30;;;;;;5076638;28;20025;-58
2022/04/29 00:55:11;;;;;;;2.15;1.27;;;20.80;40.30;;;;;;5077030;28;20047;-58
2022/04/29 00:57:42;;;;;;;1.10;0.90;;;20.80;40.40;;;;;;5077684;28;20482;-58
2022/04/29 01:00:11;;;;;;;;;;;20.80;40.30;;;;;;5077424;28;20040;-58
2022/04/29 01:02:42;;;;;;;2.03;1.10;;;20.80;40.40;;;;;;5079090;28;19987;-58
2022/04/29 01:05:09;;;;;;;2.03;1.17;;;20.80;40.40;;;;;;5079185;28;20021;-58
2022/04/29 01:07:36;;;;;;;2.28;1.20;;;20.80;40.30;;;;;;5077773;28;20066;-55
2022/04/29 01:10:02;;;;;;;1.83;1.20;;;20.70;40.30;;;;;;5076756;28;20024;-58
2022/04/29 01:12:31;;;;;;;1.98;1.15;;;20.80;40.40;;;;;;5077137;28;20083;-58
2022/04/29 01:15:02;;;;;;;2.08;1.30;;;20.80;40.50;;;;;;5092276;28;20017;-58
2022/04/29 01:17:29;;;;;;;3.72;1.80;;;20.70;40.40;;;;;;5075655;28;20012;-59
2022/04/29 01:19:55;;;;;;;1.92;1.17;;;20.70;40.40;;;;;;5076208;28;20013;-57
2022/04/29 01:22:21;;;;;;;2.03;1.27;;;20.70;40.50;;;;;;5074396;28;20063;-55
2022/04/29 01:24:50;;;;;;;2.60;1.27;;;20.70;40.40;;;;;;5074704;28;20028;-57
2022/04/29 01:27:16;;;;;;;1.33;1.15;;;20.70;40.40;;;;;;5074864;28;20025;-58
2022/04/29 01:29:42;;;;;;;2.72;1.00;;;20.70;40.50;;;;;;5075628;28;20027;-56
2022/04/29 01:32:11;;;;;;;2.03;1.10;;;20.60;40.60;;;;;;5075509;28;20062;-59
2022/04/29 01:34:37;;;;;;;2.00;1.13;;;20.70;40.60;;;;;;5075221;28;20479;-58
2022/04/29 01:37:04;;;;;;;1.50;1.00;;;20.60;40.60;;;;;;5076221;28;20017;-58
2022/04/29 01:39:31;;;;;;;2.17;1.20;;;20.70;40.60;;;;;;5075220;28;20021;-58
2022/04/29 01:41:56;;;;;;;1.65;1.20;;;20.70;40.50;;;;;;5073701;28;20028;-57
2022/04/29 01:44:23;;;;;;;1.75;1.10;;;20.70;40.60;;;;;;5074710;28;20028;-58
2022/04/29 01:46:49;;;;;;;2.20;1.40;;;20.70;40.60;;;;;;5089959;28;20376;-57
2022/04/29 01:49:16;;;;;;;1.88;1.10;;;20.60;40.60;;;;;;5073419;28;20016;-58
2022/04/29 01:51:42;;;;;;;2.60;1.20;;;20.60;40.60;;;;;;5074515;28;20031;-57
2022/04/29 01:54:10;;;;;;;2.33;1.15;;;20.60;40.60;;;;;;5073048;28;20021;-57
2022/04/29 01:56:38;;;;;;;2.63;1.13;;;20.70;40.70;;;;;;5074423;28;20021;-58
2022/04/29 01:59:04;;;;;;;2.63;1.17;;;20.60;40.60;;;;;;5074359;28;20028;-59
2022/04/29 02:01:30;;;;;;;2.65;1.27;;;20.60;40.70;;;;;;5074491;28;20021;-59
2022/04/29 02:03:58;;;;;;;1.77;1.08;;;20.60;40.70;;;;;;5073229;28;20028;-58
2022/04/29 02:06:24;;;;;;;1.80;1.05;;;20.60;40.70;;;;;;5073515;28;20016;-57
2022/04/29 02:08:50;;;;;;;2.58;1.10;;;20.60;40.70;;;;;;5075675;28;20028;-57
2022/04/29 02:11:18;;;;;;;1.88;1.10;;;20.60;40.80;;;;;;5075158;28;20023;-57
2022/04/29 02:13:45;;;;;;;3.15;1.10;;;20.60;40.90;;;;;;5074816;28;20017;-57
2022/04/29 02:16:11;;;;;;;2.60;1.35;;;20.50;40.80;;;;;;5075087;28;20042;-56
2022/04/29 02:18:37;;;;;;;2.38;1.17;;;20.60;40.80;;;;;;5074714;28;20013;-58
2022/04/29 02:21:03;;;;;;;1.35;1.13;;;20.50;40.80;;;;;;5074080;28;20051;-57
2022/04/29 02:23:29;;;;;;;2.17;1.00;;;20.60;40.80;;;;;;5089317;28;20040;-55
2022/04/29 02:25:57;;;;;;;2.25;1.27;;;20.60;40.80;;;;;;5075032;28;20013;-58
2022/04/29 02:28:23;;;;;;;2.60;1.50;;;20.60;40.80;;;;;;5075704;28;20020;-58
2022/04/29 02:30:49;;;;;;;2.10;1.45;;;20.60;40.90;;;;;;5076824;28;20074;-59
2022/04/29 02:33:15;;;;;;;2.38;1.15;;;20.50;40.80;;;;;;5076501;28;20088;-58
2022/04/29 02:35:41;;;;;;;1.58;1.23;;;20.60;40.90;;;;;;5092619;28;20495;-58
2022/04/29 02:38:07;;;;;;;1.88;1.20;;;20.50;40.90;;;;;;5076683;28;20474;-57
2022/04/29 02:40:33;;;;;;;2.38;1.00;;;20.50;40.90;;;;;;5075865;28;20024;-56
2022/04/29 02:42:59;;;;;;;2.80;1.30;;;20.50;40.90;;;;;;5074448;28;20025;-56
2022/04/29 02:45:25;;;;;;;2.42;1.25;;;20.50;40.90;;;;;;5074981;28;20066;-58
2022/04/29 02:47:51;;;;;;;1.77;1.05;;;20.50;40.90;;;;;;5074324;28;20024;-55
2022/04/29 02:50:17;;;;;;;1.77;1.10;;;20.50;41.00;;;;;;5073879;28;20047;-56
2022/04/29 02:52:43;;;;;;;1.42;1.00;;;20.50;40.90;;;;;;5072533;28;20020;-56
2022/04/29 02:55:10;;;;;;;1.38;1.00;;;20.50;40.90;;;;;;5072850;28;20028;-57
2022/04/29 02:57:36;;;;;;;2.50;1.20;;;20.50;41.00;;;;;;5073782;28;20505;-56
2022/04/29 03:00:02;;;;;;;2.65;1.20;;;20.50;41.00;;;;;;5074589;28;20025;-56
2022/04/29 03:02:28;;;;;;;2.05;1.10;;;20.50;41.00;;;;;;5076006;28;20024;-58
2022/04/29 03:04:55;;;;;;;1.42;1.00;;;20.50;41.00;;;;;;5057788;28;20104;-58
2022/04/29 03:07:20;;;;;;;2.10;1.15;;;20.50;41.00;;;;;;5075233;28;20452;-55
2022/04/29 03:09:48;;;;;;;2.63;1.50;;;20.40;41.00;;;;;;5073744;28;20413;-58
2022/04/29 03:12:14;;;;;;;1.33;1.20;;;20.50;41.00;;;;;;5074564;28;20013;-57
2022/04/29 03:14:40;;;;;;;1.65;1.17;;;20.50;41.00;;;;;;5074449;28;20546;-55
2022/04/29 03:18:17;;;;;;;1.73;1.13;;;20.50;41.00;;;;;;5074130;28;20017;-58
2022/04/29 03:19:52;;;;;;;1.85;1.20;;;20.40;41.10;;;;;;5073593;28;20029;-56
2022/04/29 03:22:19;;;;;;;1.40;0.90;;;20.50;41.10;;;;;;5072429;28;20072;-58
2022/04/29 03:24:47;;;;;;;1.58;1.10;;;20.40;41.10;;;;;;5072041;28;20427;-58
2022/04/29 03:27:13;;;;;;;2.10;1.30;;;20.40;41.20;;;;;;5072862;28;20027;-58
2022/04/29 03:29:38;;;;;;;1.67;1.20;;;20.40;41.10;;;;;;5073799;28;20016;-58
2022/04/29 03:32:05;;;;;;;1.23;1.00;;;20.40;41.00;;;;;;5074153;28;20017;-58
2022/04/29 03:34:31;;;;;;;1.90;1.35;;;20.40;41.10;;;;;;5074427;28;20108;-58
2022/04/29 03:36:57;;;;;;;1.70;1.20;;;20.50;41.10;;;;;;5074414;28;20013;-57
2022/04/29 03:39:23;;;;;;;1.42;1.08;;;20.40;41.20;;;;;;5074812;28;20074;-58
2022/04/29 03:41:49;;;;;;;1.33;0.98;;;20.40;41.20;;;;;;5074108;28;20021;-58
2022/04/29 03:44:15;;;;;;;2.17;1.00;;;20.40;41.10;;;;;;5073830;28;20028;-56
2022/04/29 03:46:41;;;;;;;2.05;1.30;;;20.30;41.20;;;;;;5073983;28;20430;-58
2022/04/29 03:51:51;;;;;;;2.03;1.17;;;20.30;41.10;;;;;;5073273;28;20039;-58
2022/04/29 03:54:17;;;;;;;1.85;1.10;;;20.40;41.20;;;;;;5072915;28;20100;-58
2022/04/29 03:56:44;;;;;;;2.03;1.17;;;20.30;41.20;;;;;;5072237;28;20025;-58
2022/04/29 03:59:11;;;;;;;3.08;1.20;;;20.30;41.30;;;;;;5074385;28;20493;-58
2022/04/29 04:01:37;;;;;;;2.63;1.33;;;20.30;41.30;;;;;;5076565;28;20442;-59
2022/04/29 04:04:03;;;;;;;1.52;1.10;;;20.30;41.30;;;;;;5060242;28;20058;-58
2022/04/29 04:09:13;;;;;;;1.20;1.10;;;20.30;41.30;;;;;;5078426;28;20086;-58
2022/04/29 04:11:39;;;;;;;1.65;1.10;;;20.30;41.20;;;;;;5078266;28;20028;-58
2022/04/29 04:14:05;;;;;;;1.92;1.20;;;20.30;41.20;;;;;;5079804;28;20017;-58
2022/04/29 04:16:31;;;;;;;2.40;1.38;;;20.30;41.20;;;;;;5079066;28;20028;-58
2022/04/29 04:18:57;;;;;;;3.53;1.45;;;20.30;41.20;;;;;;5077793;28;20481;-59
2022/04/29 04:21:24;;;;;;;2.85;1.15;;;20.30;41.30;;;;;;5077015;28;20119;-58
2022/04/29 04:23:50;;;;;;;2.20;1.15;;;20.30;41.40;;;;;;5075604;28;20028;-57
2022/04/29 04:26:16;;;;;;;2.00;1.10;;;20.30;41.40;;;;;;5076983;28;20482;-58
2022/04/29 04:28:43;;;;;;;2.60;1.17;;;20.30;41.30;;;;;;5076113;28;20514;-58
2022/04/29 04:31:10;;;;;;;1.45;1.20;;;20.30;41.40;;;;;;5078019;28;20024;-59
2022/04/29 04:33:36;;;;;;;3.13;1.10;;;20.30;41.30;;;;;;5076888;28;20031;-60
2022/04/29 04:36:04;;;;;;;1.77;1.08;;;20.30;41.40;;;;;;5079440;28;20035;-58
2022/04/29 04:38:32;;;;;;;2.03;1.33;;;20.30;41.30;;;;;;5079568;28;20044;-59
2022/04/29 04:40:59;;;;;;;1.80;1.08;;;20.20;41.30;;;;;;5077699;28;20008;-58
2022/04/29 04:43:27;;;;;;;2.60;1.25;;;20.30;41.30;;;;;;5076400;28;20036;-58
2022/04/29 04:45:53;;;;;;;2.03;1.30;;;20.30;41.30;;;;;;5075479;28;20031;-58
2022/04/29 04:48:20;;;;;;;2.33;1.20;;;20.30;41.30;;;;;;5074246;28;20021;-58
2022/04/29 04:50:46;;;;;;;2.42;1.10;;;20.30;41.40;;;;;;5076145;28;20017;-58
2022/04/29 04:53:12;;;;;;;1.50;1.10;;;20.30;41.40;;;;;;5074314;28;20020;-57
2022/04/29 04:55:38;;;;;;;2.50;1.20;;;20.20;41.40;;;;;;5076173;28;20035;-59
2022/04/29 04:58:04;;;;;;;1.42;0.90;;;20.20;41.30;;;;;;5078194;28;20016;-59
2022/04/29 05:00:30;;;;;;;2.55;1.10;;;20.20;41.40;;;;;;5077479;28;20166;-59
2022/04/29 05:02:56;;;;;;;1.70;1.10;;;20.20;41.50;;;;;;5078442;28;20054;-59
2022/04/29 05:05:22;;;;;;;1.63;1.02;;;20.20;41.50;;;;;;5093321;28;20016;-59
2022/04/29 05:07:48;;;;;;;2.33;1.35;;;20.20;41.40;;;;;;5078461;28;20524;-58
2022/04/29 05:10:14;;;;;;;1.45;0.95;;;20.20;41.40;;;;;;5077222;28;20459;-60
2022/04/29 05:12:44;;;;;;;1.83;0.98;;;20.20;41.40;;;;;;5074938;28;20017;-58
2022/04/29 05:15:11;;;;;;;1.50;1.15;;;20.20;41.40;;;;;;5075107;28;20063;-59
2022/04/29 05:17:39;;;;;;;2.67;1.23;;;20.20;41.50;;;;;;5073918;28;20016;-57
2022/04/29 05:20:06;;;;;;;2.03;1.10;;;20.20;41.50;;;;;;5074811;28;20017;-58
2022/04/29 05:22:31;;;;;;;1.88;1.23;;;20.20;41.50;;;;;;5074337;28;20044;-58
2022/04/29 05:24:57;;;;;;;2.28;1.20;;;20.20;41.50;;;;;;5074329;28;20024;-59
2022/04/29 05:27:23;;;;;;;2.80;1.45;;;20.10;41.40;;;;;;5075462;28;20135;-59
2022/04/29 05:29:49;;;;;;;2.35;1.40;;;20.20;41.50;;;;;;5075462;28;20046;-58
2022/04/29 05:32:16;;;;;;;1.33;1.00;;;20.20;41.50;;;;;;5074110;28;20021;-58
2022/04/29 05:34:42;;;;;;;1.67;1.08;;;20.10;41.40;;;;;;5075211;28;20082;-60
2022/04/29 05:37:07;;;;;;;2.85;1.00;;;20.20;41.50;;;;;;5075921;28;20017;-57
2022/04/29 05:42:22;;;;;;;5.03;1.35;;;20.20;41.50;;;;;;5075896;28;20074;-57
2022/04/29 05:44:48;;;;;;;1.77;1.00;;;20.20;41.50;;;;;;5075812;28;20032;-58
2022/04/29 05:47:14;;;;;;;1.63;0.95;;;20.30;41.30;;;;;;5075773;28;20070;-58
2022/04/29 05:49:40;;;;;;;1.67;1.00;;;20.40;41.10;;;;;;5075368;28;20027;-58
2022/04/29 05:52:07;;;;;;;1.92;0.80;;;20.40;41.20;;;;;;5073243;28;20440;-57
2022/04/29 05:54:33;;;;;;;2.45;0.90;;;20.50;40.90;;;;;;5073351;28;20020;-58
2022/04/29 05:57:00;;;;;;;1.67;1.02;;;20.60;40.70;;;;;;5073538;28;20020;-57
2022/04/29 05:59:26;;;;;;;1.98;1.20;;;20.60;40.60;;;;;;5073351;28;20070;-57
2022/04/29 06:01:52;;;;;;;2.22;1.10;;;20.70;40.50;;;;;;5071673;28;20054;-57
2022/04/29 06:04:18;;;;;;;1.80;1.20;;;20.80;40.30;;;;;;5073190;28;20141;-58
2022/04/29 06:06:45;;;;;;;1.77;1.20;;;20.90;40.20;;;;;;5071633;28;20016;-58
2022/04/29 06:09:11;;;;;;;3.38;1.10;;;21.00;40.00;;;;;;5071680;28;20025;-58
2022/04/29 06:11:37;;;;;;;1.50;1.00;;;21.10;39.90;;;;;;5072908;28;20024;-57
2022/04/29 06:14:03;;;;;;;2.83;1.20;;;21.10;39.70;;;;;;5072810;28;20024;-58
2022/04/29 06:16:29;;;;;;;2.45;1.27;;;21.20;39.60;;;;;;5088255;28;20100;-59
2022/04/29 06:18:55;;;;;;;1.65;1.20;;;21.30;39.50;;;;;;5072231;28;20036;-58
2022/04/29 06:21:21;;;;;;;4.68;1.33;;;21.30;39.40;;;;;;5071338;28;20069;-58
2022/04/29 06:23:48;;;;;;;13.95;2.65;;;21.30;39.60;;;;;;5053629;28;20052;-58
2022/04/29 06:26:14;;;;;;;22.33;2.67;;;21.40;41.80;;;;;;5070452;28;20432;-57
2022/04/29 06:28:41;;;;;;;29.98;3.45;;;21.50;42.50;;;;;;5070558;28;20016;-58
2022/04/29 06:31:07;;;;;;;14.82;3.65;;;21.70;43.00;;;;;;5072176;28;20032;-58
2022/04/29 06:33:33;;;;;;;25.13;4.25;;;21.70;43.50;;;;;;5070925;28;20015;-57
2022/04/29 06:36:00;;;;;;;14.23;4.13;;;21.70;43.30;;;;;;5054300;28;20029;-59
2022/04/29 06:38:28;;;;;;;19.20;3.70;;;21.80;43.40;;;;;;5072371;28;20020;-58
2022/04/29 06:40:55;;;;;;;15.30;3.40;;;22.00;43.20;;;;;;5070891;28;20140;-59
2022/04/29 06:43:21;;;;;;;13.93;3.67;;;22.00;42.80;;;;;;5071610;28;20024;-58
2022/04/29 06:45:48;;;;;;;14.32;4.15;;;22.00;43.00;;;;;;5071765;28;20475;-59
2022/04/29 06:48:14;;;;;;;21.60;4.35;;;22.00;43.40;;;;;;5071865;28;20020;-58
2022/04/29 06:50:41;;;;;;;12.18;4.00;;;22.20;43.20;;;;;;5070912;28;20009;-58
2022/04/29 06:53:08;;;;;;;14.25;4.13;;;22.20;42.90;;;;;;5054711;28;20108;-59
2022/04/29 06:55:40;;;;;;;18.58;5.63;;;22.40;42.60;;;;;;5054295;28;20526;-57
2022/04/29 06:58:06;;;;;;;8.10;3.85;;;22.50;42.00;;;;;;5072233;28;20033;-57
2022/04/29 07:00:32;;;;;;;14.55;4.18;;;22.50;42.00;;;;;;5071219;28;20594;-57
2022/04/29 07:03:02;;;;;;;13.95;4.70;;;22.70;41.60;;;;;;5072754;28;20008;-56
2022/04/29 07:05:32;;;;;;;8.93;3.80;;;22.80;41.20;;;;;;5071928;28;20029;-55
2022/04/29 07:07:59;;;;;;;14.57;4.15;;;22.80;41.50;;;;;;5070924;28;20020;-55
2022/04/29 07:10:25;;;;;;;9.77;3.80;;;22.80;41.40;;;;;;5072217;28;20008;-58
2022/04/29 07:12:50;;;;;;;15.20;4.47;;;22.80;41.00;;;;;;5072206;28;20355;-56
2022/04/29 07:15:16;;;;;;;18.70;4.47;;;22.80;41.20;;;;;;5071200;28;20104;-57
2022/04/29 07:17:43;;;;;;;20.05;4.18;;;22.80;40.40;;;;;;5072045;28;20057;-59
2022/04/29 07:20:10;;;;;;;19.83;4.20;;;22.80;40.90;;;;;;5072138;28;20020;-58
2022/04/29 07:22:41;;;;;;;12.68;4.00;;;22.80;40.50;;;;;;5071794;28;20109;-59
2022/04/29 07:25:07;;;;;;;14.52;4.57;;;22.90;40.10;;;;;;5072066;28;20104;-58
2022/04/29 07:27:34;;;;;;;13.75;4.57;;;22.90;39.40;;;;;;5072190;28;20028;-58
2022/04/29 07:30:01;;;;;;;10.95;4.10;;;22.80;39.20;;;;;;5053792;28;20415;-57
2022/04/29 07:32:27;;;;;;;11.98;3.35;;;22.80;39.30;;;;;;5071287;28;20070;-57
2022/04/29 07:43:15;;;;;;;12.43;4.13;;;22.80;38.60;;;;;;5074467;28;20109;-54
2022/04/29 07:45:42;;;;;;;16.95;3.80;;;22.80;38.80;;;;;;5089344;28;20449;-54
2022/04/29 07:48:11;;;;;;;14.02;4.15;;;22.80;38.60;;;;;;5073201;28;20468;-55
2022/04/29 07:50:38;;;;;;;9.00;3.38;;;22.80;38.80;;;;;;5073339;28;20059;-54
2022/04/29 07:53:05;;;;;;;9.77;3.50;;;22.80;38.70;;;;;;5072820;28;20073;-56
2022/04/29 07:55:31;;;;;;;11.52;3.60;;;22.80;38.90;;;;;;5074491;28;20016;-53
2022/04/29 07:57:57;;;;;;;18.60;4.10;;;22.80;39.00;;;;;;5072638;28;20040;-53
2022/04/29 08:00:23;;;;;;;13.90;3.63;;;22.80;39.10;;;;;;5055988;28;20143;-57
2022/04/29 08:02:49;;;;;;;15.02;3.88;;;22.80;39.10;;;;;;5075252;28;20102;-58
2022/04/29 08:05:16;;;;;;;14.88;3.33;;;22.80;38.60;;;;;;5073966;28;20096;-56
2022/04/29 08:07:43;;;;;;;13.07;3.25;;;22.80;38.50;;;;;;5075941;28;20020;-58
2022/04/29 08:10:09;;;;;;;10.05;3.10;;;22.70;38.60;;;;;;5075212;28;20024;-59
2022/04/29 08:12:36;;;;;;;9.15;2.78;;;22.70;38.70;;;;;;5075282;28;20027;-57
2022/04/29 08:15:06;;;;;;;13.50;3.03;;;22.60;38.70;;;;;;5073261;28;20463;-58
2022/04/29 08:17:31;;;;;;;10.55;3.13;;;22.60;38.60;;;;;;5073151;28;20028;-57
2022/04/29 08:19:58;;;;;;;25.00;3.30;;;22.60;38.60;;;;;;5074420;28;20516;-54
2022/04/29 08:22:24;;;;;;;13.23;3.20;;;22.50;38.70;;;;;;5073769;28;20048;-56
2022/04/29 08:24:49;;;;;;;14.40;3.75;;;22.60;39.00;;;;;;5074029;28;20059;-56
2022/04/29 08:27:18;;;;;;;13.15;4.22;;;22.50;38.90;;;;;;5074398;28;20087;-55
2022/04/29 08:29:43;;;;;;;14.88;3.83;;;22.40;38.90;;;;;;5075030;28;20012;-56
2022/04/29 08:32:12;;;;;;;15.13;3.45;;;22.40;39.00;;;;;;5090178;28;20017;-55
2022/04/29 08:34:37;;;;;;;13.48;4.53;;;22.40;39.00;;;;;;5090002;28;20115;-56
2022/04/29 08:37:04;;;;;;;9.57;3.63;;;22.40;39.00;;;;;;5074298;28;20074;-57
2022/04/29 08:39:30;;;;;;;10.18;3.65;;;22.50;39.10;;;;;;5073793;28;20020;-57
2022/04/29 08:42:00;;;;;;;15.48;4.28;;;22.60;39.00;;;;;;5073898;28;20013;-56
2022/04/29 08:44:27;;;;;;;11.55;3.83;;;22.70;38.80;;;;;;5074168;28;20029;-54
2022/04/29 08:46:54;;;;;;;8.25;3.50;;;22.80;38.80;;;;;;5073110;28;20013;-55
2022/04/29 08:49:19;;;;;;;10.77;3.72;;;22.80;38.80;;;;;;5055295;28;20024;-55
2022/04/29 08:51:45;;;;;;;10.40;3.92;;;22.80;38.90;;;;;;5088282;28;20052;-56
2022/04/29 08:58:36;;;;;;;10.30;4.25;;;22.80;38.40;;;;;;5072736;28;20040;-53
2022/04/29 08:59:42;;;;;;;15.55;4.55;;;22.90;38.20;;;;;;5072112;28;20031;-55
2022/04/29 09:02:09;;;;;;;13.10;4.78;;;22.90;38.00;;;;;;5073072;28;20078;-54
2022/04/29 09:04:36;;;;;;;10.82;3.83;;;22.90;38.00;;;;;;5073039;28;20020;-54
2022/04/29 09:07:03;;;;;;;11.55;4.45;;;23.00;38.00;;;;;;5072802;28;20020;-57
2022/04/29 09:09:29;;;;;;;16.08;4.13;;;23.00;37.60;;;;;;5074189;28;20118;-57
2022/04/29 09:12:16;;;;;;;21.98;3.85;;;23.00;38.00;;;;;;5074198;28;20490;-59
2022/04/29 09:14:43;;;;;;;25.15;4.60;;;23.10;37.50;;;;;;5073391;28;20015;-55
2022/04/29 09:17:28;;;;;;;15.07;4.63;;;23.10;38.30;;;;;;5073277;28;20027;-56
2022/04/29 09:19:54;;;;;;;24.05;4.85;;;23.20;38.70;;;;;;5089124;28;20141;-56
2022/04/29 09:22:20;;;;;;;9.25;4.40;;;23.30;39.00;;;;;;5073424;28;20048;-59
2022/04/29 09:25:06;;;;;;;20.73;4.68;;;23.30;39.00;;;;;;5088776;28;20440;-55
2022/04/29 09:27:53;;;;;;;18.08;5.53;;;23.30;39.00;;;;;;5073106;28;20138;-56
2022/04/29 09:30:34;;;;;;;16.50;6.03;;;23.30;38.80;;;;;;5073116;28;20021;-56
2022/04/29 09:33:00;;;;;;;14.15;5.38;;;23.40;38.90;;;;;;5073226;28;20400;-56
2022/04/29 09:35:42;;;;;;;11.05;4.18;;;23.40;38.80;;;;;;5072000;28;20058;-57
2022/04/29 09:40:53;;;;;;;15.60;5.10;;;23.50;38.90;;;;;;5073367;28;20083;-56
2022/04/29 09:43:44;;;;;;;15.07;5.40;;;23.50;39.10;;;;;;5088456;28;20012;-56
2022/04/29 09:46:38;;;;;;;14.25;4.75;;;23.50;38.40;;;;;;5073027;28;20491;-52
2022/04/29 09:49:08;;;;;;;11.73;5.22;;;23.60;38.60;;;;;;5071319;28;20487;-56
2022/04/29 09:51:41;;;;;;;13.57;5.05;;;23.60;38.60;;;;;;5055081;28;20012;-59
2022/04/29 09:54:37;;;;;;;13.88;4.70;;;23.60;38.70;;;;;;5072498;28;20529;-53
2022/04/29 09:57:09;;;;;;;14.05;4.47;;;23.60;39.10;;;;;;5062353;28;20037;-58
2022/04/29 09:59:41;;;;;;;27.17;5.43;;;23.60;39.00;;;;;;5073351;28;20021;-58
2022/04/29 10:02:08;;;;;;;25.52;5.25;;;23.50;38.40;;;;;;5073377;28;20585;-59
2022/04/29 10:04:36;;;;;;;23.73;4.55;;;23.40;38.60;;;;;;5073531;28;20033;-58
2022/04/29 10:07:06;;;;;;;18.00;4.97;;;23.30;38.70;;;;;;5073214;28;20009;-58
2022/04/29 10:09:34;;;;;;;13.10;4.03;;;23.20;38.90;;;;;;5073262;28;20032;-57
2022/04/29 10:12:02;;;;;;;13.90;3.90;;;23.20;38.90;;;;;;5073456;28;20462;-55
2022/04/29 10:14:31;;;;;;;12.02;4.15;;;23.10;38.80;;;;;;5073437;28;20074;-57
2022/04/29 10:22:40;;;;;;;23.40;3.42;;;23.10;38.90;;;;;;5072649;28;20517;-57
2022/04/29 10:25:08;;;;;;;17.60;3.10;;;23.00;38.90;;;;;;5072904;28;20048;-57
2022/04/29 10:27:40;;;;;;;10.25;2.92;;;23.10;38.90;;;;;;5072406;28;20102;-57
2022/04/29 10:30:08;;;;;;;11.48;2.80;;;23.00;38.90;;;;;;5071318;28;20099;-58
2022/04/29 10:33:04;;;;;;;10.93;3.00;;;23.00;38.90;;;;;;5072739;28;20008;-57
2022/04/29 10:35:56;;;;;;;11.75;2.63;;;23.00;39.00;;;;;;5072983;28;20021;-59
2022/04/29 10:38:35;;;;;;;8.35;2.95;;;23.10;39.00;;;;;;5071580;28;20067;-57
2022/04/29 10:41:07;;;;;;;10.25;2.72;;;23.00;38.90;;;;;;5072310;28;20025;-56
2022/04/29 10:43:53;;;;;;;11.35;2.65;;;23.00;39.00;;;;;;5072124;28;20029;-58
2022/04/29 10:46:36;;;;;;;7.70;2.60;;;23.00;38.90;;;;;;5067517;28;20041;-57
2022/04/29 10:49:25;;;;;;;9.40;3.15;;;23.00;39.00;;;;;;5071884;28;20039;-58
2022/04/29 10:51:55;;;;;;;19.63;4.38;;;22.90;38.90;;;;;;5086978;28;20020;-55
2022/04/29 10:54:42;;;;;;;23.13;4.40;;;23.10;39.40;;;;;;5071718;28;20023;-53
2022/04/29 10:57:12;;;;;;;18.17;4.75;;;23.10;39.80;;;;;;5071579;28;20024;-57
2022/04/29 11:00:00;;;;;;;18.20;5.30;;;23.10;39.90;;;;;;5071822;28;20112;-56
2022/04/29 11:02:27;;;;;;;19.92;5.30;;;23.10;39.90;;;;;;5071363;28;20093;-58
2022/04/29 11:04:54;;;;;;;12.57;5.18;;;23.20;40.00;;;;;;5071127;28;20023;-58
2022/04/29 11:07:43;;;;;;;15.60;5.78;;;23.20;39.90;;;;;;5069765;28;20542;-53
2022/04/29 11:10:14;;;;;;;13.60;5.63;;;23.00;40.40;;;;;;5073579;28;20096;-58
2022/04/29 11:12:40;;;;;;;15.55;6.18;;;23.10;40.30;;;;;;5073637;28;20103;-57
2022/04/29 11:15:12;;;;;;;20.05;6.55;;;23.00;39.60;;;;;;5073654;28;20013;-57
2022/04/29 11:17:38;;;;;;;11.98;5.72;;;23.10;40.70;;;;;;5075140;28;20033;-61
2022/04/29 11:20:24;;;;;;;14.95;6.15;;;23.10;39.90;;;;;;5073630;28;20013;-58
2022/04/29 11:25:48;;;;;;;;;;;23.00;41.10;;;;;;5075518;28;20510;-54
2022/04/29 11:28:15;;;;;;;18.17;5.82;;;23.20;40.40;;;;;;5074373;28;19991;-53
2022/04/29 11:30:42;;;;;;;12.32;5.78;;;23.20;40.10;;;;;;5073259;28;20125;-53
2022/04/29 11:33:07;;;;;;;22.55;6.18;;;23.00;40.10;;;;;;5073692;28;20087;-53
2022/04/29 11:35:33;;;;;;;14.40;5.88;;;23.00;40.50;;;;;;5073900;28;20125;-53
2022/04/29 11:37:59;;;;;;;25.70;6.38;;;23.10;40.50;;;;;;5073119;28;20016;-53
2022/04/29 11:40:26;;;;;;;27.80;6.03;;;23.20;40.60;;;;;;5073205;28;20025;-54
2022/04/29 11:42:52;;;;;;;26.52;6.47;;;23.20;40.30;;;;;;5090299;28;20546;-55
2022/04/29 11:45:20;;;;;;;31.88;7.95;;;23.30;40.50;;;;;;5075373;28;20031;-49
2022/04/29 11:47:46;;;;;;;24.90;8.32;;;23.10;40.20;;;;;;5075008;28;20020;-50
2022/04/29 11:50:30;;;;;;;24.98;8.55;;;22.30;40.80;;;;;;5074415;28;20092;-53
2022/04/29 11:53:06;;;;;;;15.15;8.68;;;21.70;41.70;;;;;;5074546;28;20487;-51
2022/04/29 11:55:32;;;;;;;21.00;8.30;;;21.80;41.30;;;;;;5074926;28;20205;-52
2022/04/29 11:58:00;;;;;;;14.25;8.75;;;21.30;42.60;;;;;;5073743;28;20107;-52
2022/04/29 12:00:27;;;;;;;16.00;7.90;;;21.70;42.30;;;;;;5074137;28;20017;-53
2022/04/29 12:02:54;;;;;;;15.25;7.53;;;21.90;42.40;;;;;;5075587;28;20035;-51
2022/04/29 12:05:24;;;;;;;21.88;7.90;;;22.10;42.20;;;;;;5091167;28;20465;-53
2022/04/29 12:07:51;;;;;;;14.85;8.65;;;22.10;42.00;;;;;;5075344;28;20024;-52
2022/04/29 12:10:26;;;;;;;20.00;8.82;;;21.90;41.80;;;;;;5074473;28;20005;-54
2022/04/29 12:13:07;;;;;;;17.77;8.90;;;21.80;42.20;;;;;;5073107;28;20107;-52
2022/04/29 12:15:39;;;;;;;14.88;8.65;;;21.90;42.60;;;;;;5073698;28;20084;-53
2022/04/29 12:18:14;;;;;;;16.33;8.88;;;21.80;41.90;;;;;;5071764;28;20020;-52
2022/04/29 12:20:40;;;;;;;15.40;10.05;;;22.00;41.60;;;;;;5072477;28;20070;-50
2022/04/29 12:23:26;;;;;;;16.55;10.82;;;21.60;40.90;;;;;;5071295;28;20124;-53
2022/04/29 12:25:52;;;;;;;21.45;10.32;;;21.20;41.40;;;;;;5072766;28;20032;-55
2022/04/29 12:28:22;;;;;;;19.67;10.23;;;21.30;42.40;;;;;;5074744;28;20016;-51
2022/04/29 12:37:00;;;;;;;29.55;10.15;;;21.40;41.60;;;;;;5075010;28;20036;-56
2022/04/29 12:39:40;;;;;;;22.02;9.55;;;21.30;42.60;;;;;;5075233;28;20044;-54
2022/04/29 12:42:08;;;;;;;23.90;9.38;;;21.40;42.30;;;;;;5074722;28;20020;-53
2022/04/29 12:47:49;;;;;;;18.70;8.60;;;21.80;42.10;;;;;;5074876;28;20101;-53
2022/04/29 12:50:28;;;;;;;21.88;9.40;;;22.10;41.70;;;;;;5074692;28;20093;-53
2022/04/29 12:53:07;;;;;;;20.00;10.38;;;21.90;41.60;;;;;;5074411;28;20009;-51
2022/04/29 12:55:42;;;;;;;26.63;10.30;;;22.00;41.30;;;;;;5074318;28;20107;-49
2022/04/29 12:58:12;;;;;;;18.48;10.45;;;21.90;41.30;;;;;;5073802;28;20035;-50
2022/04/29 13:00:39;;;;;;;18.52;10.23;;;21.80;41.80;;;;;;5073235;28;20017;-50
2022/04/29 13:03:07;;;;;;;18.70;12.35;;;21.80;41.40;;;;;;5073370;28;20075;-50
2022/04/29 13:05:37;;;;;;;17.48;10.70;;;21.80;41.00;;;;;;5073136;28;20096;-54
2022/04/29 13:08:04;;;;;;;18.48;11.05;;;21.90;41.30;;;;;;5071745;28;20033;-48
2022/04/29 13:10:30;;;;;;;18.00;11.07;;;22.20;41.50;;;;;;5055370;28;20467;-52
2022/04/29 13:12:57;;;;;;;23.88;12.05;;;22.40;41.00;;;;;;5073554;28;20074;-51
2022/04/29 13:15:23;;;;;;;25.70;10.85;;;22.40;40.80;;;;;;5073170;28;20051;-50
2022/04/29 13:17:50;;;;;;;19.83;10.40;;;22.40;40.50;;;;;;5073756;28;20041;-48
2022/04/29 13:20:16;;;;;;;18.17;9.75;;;22.50;40.50;;;;;;5073656;28;20055;-52
2022/04/29 13:22:42;;;;;;;22.15;9.23;;;22.50;40.40;;;;;;5073597;28;20060;-48
2022/04/29 13:25:09;;;;;;;18.80;7.72;;;22.60;40.30;;;;;;5074063;28;20029;-51
2022/04/29 13:27:35;;;;;;;15.13;7.63;;;22.60;40.10;;;;;;5074099;28;20024;-48
2022/04/29 13:30:02;;;;;;;14.40;6.82;;;22.70;40.10;;;;;;5074429;28;20040;-52